Time;durP1;ratioP1;P1;durP2;ratioP2;P2;SDS_P1;SDS_P2;PMS_P1;PMS_P2;Temp;Humidity;BMP_temperature;BMP_pressure;BME280_temperature;BME280_humidity;BME280_pressure;Samples;Min_cycle;Max_cycle;Signal;HPM_P1;HPM_P2
2022/03/29 00:01:05;;;;;;;19.50;17.02;;;7.60;82.50;;;;;;4931547;29;20834;-68
2022/03/29 00:03:30;;;;;;;23.25;17.50;;;7.60;82.60;;;;;;4931771;29;20054;-68
2022/03/29 00:05:56;;;;;;;22.05;17.40;;;7.60;82.70;;;;;;4911112;29;20859;-69
2022/03/29 00:08:22;;;;;;;22.55;17.67;;;7.60;82.80;;;;;;4910510;29;20044;-68
2022/03/29 00:10:48;;;;;;;21.75;17.92;;;7.60;82.70;;;;;;4911629;29;20833;-68
2022/03/29 00:13:14;;;;;;;22.30;18.27;;;7.60;82.60;;;;;;4912317;29;20044;-68
2022/03/29 00:15:39;;;;;;;22.15;17.58;;;7.60;82.50;;;;;;4908358;29;20048;-68
2022/03/29 00:18:05;;;;;;;24.23;17.65;;;7.60;82.60;;;;;;4910639;29;20080;-68
2022/03/29 00:20:31;;;;;;;23.60;19.17;;;7.50;82.70;;;;;;4912447;29;20119;-69
2022/03/29 00:22:56;;;;;;;23.00;17.58;;;7.50;82.70;;;;;;4911186;29;20099;-68
2022/03/29 00:25:22;;;;;;;23.00;19.02;;;7.40;82.80;;;;;;4911000;29;20048;-69
2022/03/29 00:27:49;;;;;;;20.08;17.77;;;7.40;82.80;;;;;;4912295;29;20051;-69
2022/03/29 00:30:16;;;;;;;27.70;19.65;;;7.40;82.90;;;;;;4913152;29;20091;-68
2022/03/29 00:32:44;;;;;;;24.80;19.90;;;7.40;83.10;;;;;;4910118;29;20064;-68
2022/03/29 00:35:10;;;;;;;26.05;19.55;;;7.40;83.10;;;;;;4910650;29;20044;-68
2022/03/29 00:37:41;;;;;;;27.13;20.90;;;7.40;83.10;;;;;;4912432;29;20048;-69
2022/03/29 00:40:09;;;;;;;27.13;20.48;;;7.50;83.20;;;;;;4910137;29;20134;-68
2022/03/29 00:42:38;;;;;;;27.73;20.25;;;7.50;83.20;;;;;;4895651;29;20107;-68
2022/03/29 00:45:05;;;;;;;27.38;20.27;;;7.50;83.30;;;;;;4911200;29;20466;-68
2022/03/29 00:47:31;;;;;;;23.63;19.45;;;7.50;83.30;;;;;;4911488;29;20047;-68
2022/03/29 00:49:57;;;;;;;24.55;19.38;;;7.60;83.20;;;;;;4907918;29;20041;-68
2022/03/29 00:52:23;;;;;;;25.80;21.02;;;7.60;83.30;;;;;;4910783;29;20108;-69
2022/03/29 00:54:50;;;;;;;28.08;20.80;;;7.60;83.30;;;;;;4912316;29;20127;-68
2022/03/29 00:57:16;;;;;;;30.25;19.83;;;7.60;83.40;;;;;;4912771;29;20103;-69
2022/03/29 00:59:44;;;;;;;27.33;19.48;;;7.60;83.30;;;;;;4909537;29;20075;-68
2022/03/29 01:02:09;;;;;;;26.73;18.73;;;7.70;83.30;;;;;;4911881;29;20048;-69
2022/03/29 01:04:35;;;;;;;25.77;18.77;;;7.70;83.30;;;;;;4910926;29;20111;-68
2022/03/29 01:07:01;;;;;;;27.38;18.88;;;7.70;83.30;;;;;;4926695;29;20047;-68
2022/03/29 01:09:28;;;;;;;29.38;19.27;;;7.70;83.20;;;;;;4928010;29;20507;-68
2022/03/29 01:11:54;;;;;;;23.27;18.38;;;7.80;83.20;;;;;;4932149;29;20047;-69
2022/03/29 01:14:21;;;;;;;26.25;18.42;;;7.80;83.10;;;;;;4926045;29;20036;-69
2022/03/29 01:19:31;;;;;;;27.67;19.20;;;7.80;83.10;;;;;;4926092;29;20047;-70
2022/03/29 01:22:02;;;;;;;25.20;18.20;;;7.80;83.10;;;;;;4918875;29;20048;-69
2022/03/29 01:24:29;;;;;;;30.83;18.02;;;7.80;83.00;;;;;;4914327;29;20427;-68
2022/03/29 01:27:03;;;;;;;23.48;17.58;;;7.80;83.00;;;;;;4917723;29;20048;-69
2022/03/29 01:29:30;;;;;;;23.02;17.65;;;7.90;83.00;;;;;;4922283;29;20118;-69
2022/03/29 01:31:57;;;;;;;23.52;16.90;;;7.90;82.90;;;;;;4919117;29;20183;-68
2022/03/29 01:34:24;;;;;;;22.88;18.20;;;7.90;82.80;;;;;;4924376;29;20047;-68
2022/03/29 01:36:50;;;;;;;27.05;17.45;;;8.00;82.70;;;;;;4926381;29;20076;-68
2022/03/29 01:39:16;;;;;;;23.17;18.23;;;7.90;82.60;;;;;;4920979;29;20071;-68
2022/03/29 01:41:42;;;;;;;28.02;17.08;;;7.90;82.60;;;;;;4920312;29;20474;-69
2022/03/29 01:44:09;;;;;;;24.30;16.98;;;7.90;82.60;;;;;;4941418;29;20083;-68
2022/03/29 01:46:34;;;;;;;24.52;19.25;;;8.00;82.60;;;;;;4930857;29;20048;-69
2022/03/29 01:49:01;;;;;;;26.33;19.75;;;7.90;82.50;;;;;;4913175;29;20111;-68
2022/03/29 01:51:27;;;;;;;23.65;18.42;;;7.90;82.40;;;;;;4932217;29;20098;-68
2022/03/29 01:53:54;;;;;;;27.60;19.75;;;7.90;82.30;;;;;;4932577;29;20040;-68
2022/03/29 01:56:20;;;;;;;28.35;20.92;;;7.90;82.30;;;;;;4930778;29;20059;-68
2022/03/29 01:58:46;;;;;;;32.08;21.35;;;7.90;82.20;;;;;;4917821;29;20486;-68
2022/03/29 02:01:12;;;;;;;31.50;21.33;;;7.90;82.10;;;;;;4918730;29;20054;-67
2022/03/29 02:03:38;;;;;;;27.08;19.30;;;7.90;82.10;;;;;;4927896;29;20404;-68
2022/03/29 02:06:04;;;;;;;29.17;20.88;;;8.00;82.00;;;;;;4922276;29;20131;-68
2022/03/29 02:08:30;;;;;;;28.60;20.13;;;8.00;81.90;;;;;;4917225;29;20122;-68
2022/03/29 02:10:56;;;;;;;26.80;18.38;;;7.90;81.90;;;;;;4933542;29;20036;-68
2022/03/29 02:13:21;;;;;;;25.65;18.95;;;7.90;81.90;;;;;;4930448;29;20189;-68
2022/03/29 02:15:48;;;;;;;29.40;22.35;;;7.90;81.80;;;;;;4932770;29;20042;-68
2022/03/29 02:18:13;;;;;;;27.55;19.25;;;7.80;81.80;;;;;;4934411;29;20051;-68
2022/03/29 02:20:39;;;;;;;22.70;18.02;;;7.80;82.00;;;;;;4934524;29;20036;-68
2022/03/29 02:23:09;;;;;;;26.23;18.77;;;7.80;82.00;;;;;;4930026;29;20035;-68
2022/03/29 02:25:35;;;;;;;31.85;20.33;;;7.90;82.00;;;;;;4928038;29;20048;-69
2022/03/29 02:28:02;;;;;;;26.00;18.42;;;7.80;82.00;;;;;;4918014;29;20110;-68
2022/03/29 02:30:28;;;;;;;26.70;18.30;;;7.80;81.90;;;;;;4896923;29;20058;-68
2022/03/29 02:32:54;;;;;;;27.42;17.77;;;7.80;81.80;;;;;;4929240;29;20047;-68
2022/03/29 02:35:20;;;;;;;27.88;18.90;;;7.80;81.70;;;;;;4933015;29;20035;-68
2022/03/29 02:37:46;;;;;;;23.77;17.77;;;7.80;81.70;;;;;;4932635;29;20405;-68
2022/03/29 02:40:13;;;;;;;29.13;19.85;;;7.80;81.70;;;;;;4933442;29;20040;-69
2022/03/29 02:42:53;;;;;;;24.10;18.02;;;7.90;81.70;;;;;;4932052;29;20416;-68
2022/03/29 02:45:21;;;;;;;25.85;18.23;;;7.90;81.70;;;;;;4933497;29;20058;-68
2022/03/29 02:47:49;;;;;;;23.25;17.20;;;7.90;81.70;;;;;;4932909;29;20051;-68
2022/03/29 02:50:15;;;;;;;28.30;18.02;;;7.90;81.60;;;;;;4931866;29;20186;-68
2022/03/29 02:52:45;;;;;;;24.63;16.70;;;7.90;81.40;;;;;;4932740;29;20497;-69
2022/03/29 02:55:12;;;;;;;26.77;17.92;;;7.80;81.30;;;;;;4932262;29;20082;-69
2022/03/29 02:57:37;;;;;;;22.33;17.45;;;7.80;81.40;;;;;;4931572;29;20043;-69
2022/03/29 03:00:05;;;;;;;30.13;18.15;;;7.80;81.40;;;;;;4930257;29;20036;-69
2022/03/29 03:02:32;;;;;;;28.80;19.23;;;7.70;81.50;;;;;;4930279;29;20078;-69
2022/03/29 03:04:59;;;;;;;27.17;18.38;;;7.70;81.50;;;;;;4932190;29;20074;-69
2022/03/29 03:07:25;;;;;;;24.13;19.13;;;7.70;81.60;;;;;;4930524;29;20491;-69
2022/03/29 03:09:50;;;;;;;25.88;18.42;;;7.70;81.60;;;;;;4930406;29;20044;-69
2022/03/29 03:12:16;;;;;;;25.80;18.88;;;7.70;81.60;;;;;;4930325;29;20111;-69
2022/03/29 03:14:43;;;;;;;27.48;19.40;;;7.60;81.60;;;;;;4932555;29;20548;-69
2022/03/29 03:17:08;;;;;;;23.70;19.23;;;7.60;81.70;;;;;;4932970;29;20058;-69
2022/03/29 03:19:34;;;;;;;28.30;19.20;;;7.60;81.70;;;;;;4932016;29;20653;-69
2022/03/29 03:22:00;;;;;;;28.08;20.30;;;7.60;81.70;;;;;;4915162;29;20043;-69
2022/03/29 03:24:26;;;;;;;31.13;20.33;;;7.60;81.70;;;;;;4930746;29;20051;-68
2022/03/29 03:26:51;;;;;;;30.17;20.55;;;7.60;81.70;;;;;;4914784;29;20047;-68
2022/03/29 03:29:17;;;;;;;32.13;20.92;;;7.60;81.70;;;;;;4930985;29;20189;-68
2022/03/29 03:31:42;;;;;;;36.35;24.00;;;7.60;81.80;;;;;;4930773;29;20319;-68
2022/03/29 03:34:08;;;;;;;33.78;23.15;;;7.60;81.90;;;;;;4930882;29;20520;-68
2022/03/29 03:36:33;;;;;;;33.83;24.08;;;7.60;81.90;;;;;;4931281;29;20047;-68
2022/03/29 03:38:59;;;;;;;31.90;23.08;;;7.60;81.80;;;;;;4929976;29;20044;-68
2022/03/29 03:41:25;;;;;;;35.60;23.05;;;7.60;81.80;;;;;;4930456;29;20040;-68
2022/03/29 03:43:50;;;;;;;30.08;22.10;;;7.60;81.70;;;;;;4929906;29;20393;-68
2022/03/29 03:46:16;;;;;;;33.90;22.88;;;7.60;81.70;;;;;;4931076;29;20043;-69
2022/03/29 03:48:42;;;;;;;37.53;23.00;;;7.50;81.70;;;;;;4931410;29;20039;-68
2022/03/29 03:51:07;;;;;;;33.50;22.02;;;7.50;81.70;;;;;;4927616;29;20071;-68
2022/03/29 03:53:33;;;;;;;33.35;23.08;;;7.60;81.60;;;;;;4930981;29;20059;-68
2022/03/29 03:55:59;;;;;;;37.28;23.83;;;7.50;81.60;;;;;;4931221;29;20066;-68
2022/03/29 03:58:24;;;;;;;31.67;22.45;;;7.50;81.80;;;;;;4927977;29;20044;-68
2022/03/29 04:00:50;;;;;;;34.42;22.33;;;7.50;81.90;;;;;;4930152;29;20044;-69
2022/03/29 04:03:17;;;;;;;32.65;21.20;;;7.60;81.90;;;;;;4898840;29;20059;-68
2022/03/29 04:05:43;;;;;;;32.42;24.02;;;7.60;81.80;;;;;;4928802;29;20439;-68
2022/03/29 04:08:08;;;;;;;34.67;22.42;;;7.60;81.80;;;;;;4912784;29;20047;-68
2022/03/29 04:10:34;;;;;;;33.70;22.73;;;7.50;81.60;;;;;;4895773;29;20043;-69
2022/03/29 04:13:04;;;;;;;41.83;23.38;;;7.50;81.60;;;;;;4929188;29;20054;-69
2022/03/29 04:15:30;;;;;;;32.55;21.35;;;7.50;81.60;;;;;;4931175;29;20478;-68
2022/03/29 04:17:57;;;;;;;33.72;23.55;;;7.50;81.60;;;;;;4931807;29;20847;-68
2022/03/29 04:20:22;;;;;;;35.70;22.30;;;7.50;81.60;;;;;;4931514;29;20056;-68
2022/03/29 04:22:48;;;;;;;38.53;22.27;;;7.50;81.70;;;;;;4931372;29;20052;-68
2022/03/29 04:25:13;;;;;;;34.78;23.08;;;7.50;81.70;;;;;;4930855;29;20054;-69
2022/03/29 04:27:39;;;;;;;29.55;20.60;;;7.50;81.70;;;;;;4929866;29;20066;-68
2022/03/29 04:30:05;;;;;;;35.30;21.63;;;7.50;81.70;;;;;;4919909;29;20413;-69
2022/03/29 04:32:31;;;;;;;40.97;23.40;;;7.50;81.70;;;;;;4919569;29;20087;-68
2022/03/29 04:34:56;;;;;;;33.13;21.38;;;7.50;81.70;;;;;;4929674;29;20078;-69
2022/03/29 04:37:24;;;;;;;36.78;22.23;;;7.50;81.60;;;;;;4921271;29;20051;-68
2022/03/29 04:39:50;;;;;;;38.75;21.08;;;7.50;81.60;;;;;;4927080;29;20465;-69
2022/03/29 04:42:18;;;;;;;34.30;20.80;;;7.50;81.60;;;;;;4906804;29;20047;-68
2022/03/29 04:44:44;;;;;;;38.88;21.40;;;7.40;81.70;;;;;;4920140;29;20432;-68
2022/03/29 04:47:09;;;;;;;29.20;19.35;;;7.40;81.70;;;;;;4914378;29;20053;-68
2022/03/29 04:49:35;;;;;;;30.42;20.05;;;7.40;81.70;;;;;;4916175;29;20051;-68
2022/03/29 04:52:01;;;;;;;29.30;20.77;;;7.40;81.70;;;;;;4918525;29;20075;-68
2022/03/29 04:54:27;;;;;;;30.25;20.10;;;7.50;81.80;;;;;;4911084;29;20051;-68
2022/03/29 04:56:53;;;;;;;31.05;19.98;;;7.50;81.80;;;;;;4909535;29;20044;-68
2022/03/29 04:59:18;;;;;;;30.92;19.95;;;7.50;81.90;;;;;;4928272;29;20102;-69
2022/03/29 05:01:45;;;;;;;29.77;20.95;;;7.60;81.90;;;;;;4921317;29;20083;-67
2022/03/29 05:04:10;;;;;;;34.95;21.02;;;7.60;81.90;;;;;;4914767;29;20553;-67
2022/03/29 05:06:36;;;;;;;35.38;20.40;;;7.50;81.80;;;;;;4913621;29;20135;-67
2022/03/29 05:09:03;;;;;;;33.15;19.10;;;7.60;81.80;;;;;;4917615;29;20409;-67
2022/03/29 05:11:29;;;;;;;31.52;20.42;;;7.60;81.90;;;;;;4931645;29;20083;-67
2022/03/29 05:13:55;;;;;;;34.92;20.40;;;7.60;82.00;;;;;;4926623;29;20457;-68
2022/03/29 05:16:20;;;;;;;32.83;21.75;;;7.60;81.90;;;;;;4928821;29;20040;-67
2022/03/29 05:18:46;;;;;;;36.25;20.42;;;7.60;81.80;;;;;;4923894;29;20050;-67
2022/03/29 05:21:12;;;;;;;33.42;21.17;;;7.60;81.90;;;;;;4923715;29;20051;-68
2022/03/29 05:23:38;;;;;;;35.33;21.45;;;7.60;81.90;;;;;;4934317;29;20044;-68
2022/03/29 05:26:04;;;;;;;44.75;23.17;;;7.70;81.90;;;;;;4933654;29;20032;-67
2022/03/29 05:28:29;;;;;;;32.83;21.55;;;7.70;81.90;;;;;;4924691;29;20040;-67
2022/03/29 05:30:55;;;;;;;33.88;20.00;;;7.70;81.90;;;;;;4929440;29;20157;-69
2022/03/29 05:33:20;;;;;;;30.77;19.75;;;7.70;81.90;;;;;;4933874;29;20787;-67
2022/03/29 05:35:46;;;;;;;28.92;20.92;;;7.70;81.90;;;;;;4900300;29;20052;-67
2022/03/29 05:38:12;;;;;;;34.47;20.10;;;7.70;81.80;;;;;;4916430;29;20047;-67
2022/03/29 05:40:38;;;;;;;30.17;19.55;;;7.70;81.80;;;;;;4923302;29;20035;-66
2022/03/29 05:43:10;;;;;;;31.27;21.13;;;7.70;81.70;;;;;;4933968;29;20118;-66
2022/03/29 05:45:36;;;;;;;;;;;7.70;81.80;;;;;;4928691;29;20074;-65
2022/03/29 05:50:45;;;;;;;35.38;21.05;;;7.60;81.80;;;;;;4931111;29;20056;-66
2022/03/29 05:53:11;;;;;;;32.40;19.60;;;7.70;81.90;;;;;;4933244;29;20043;-66
2022/03/29 05:55:37;;;;;;;35.47;21.58;;;7.70;81.80;;;;;;4933960;29;20040;-66
2022/03/29 05:58:02;;;;;;;36.33;20.75;;;7.70;81.70;;;;;;4911471;29;20110;-67
2022/03/29 06:00:29;;;;;;;33.30;20.30;;;7.70;81.60;;;;;;4931302;29;20074;-67
2022/03/29 06:02:55;;;;;;;40.00;21.17;;;7.70;81.50;;;;;;4930942;29;20047;-67
2022/03/29 06:05:21;;;;;;;37.72;19.73;;;7.60;81.50;;;;;;4933273;29;20238;-66
2022/03/29 06:07:47;;;;;;;39.58;20.90;;;7.60;81.50;;;;;;4932139;29;20094;-67
2022/03/29 06:10:12;;;;;;;37.92;20.77;;;7.60;81.60;;;;;;4930946;29;20043;-67
2022/03/29 06:12:38;;;;;;;33.17;20.35;;;7.60;81.70;;;;;;4916864;29;20039;-68
2022/03/29 06:15:05;;;;;;;30.58;20.23;;;7.60;81.70;;;;;;4922960;29;20040;-67
2022/03/29 06:17:31;;;;;;;34.72;22.10;;;7.60;81.70;;;;;;4929510;29;20520;-69
2022/03/29 06:19:57;;;;;;;29.45;20.08;;;7.70;82.00;;;;;;4914267;29;20048;-69
2022/03/29 06:22:22;;;;;;;33.17;21.00;;;7.70;81.90;;;;;;4914233;29;20514;-70
2022/03/29 06:24:49;;;;;;;38.05;22.55;;;7.70;81.80;;;;;;4933763;29;20072;-69
2022/03/29 06:27:15;;;;;;;36.55;20.48;;;7.70;81.80;;;;;;4918099;29;20551;-68
2022/03/29 06:29:41;;;;;;;35.95;21.38;;;7.70;81.80;;;;;;4916050;29;20044;-69
2022/03/29 06:32:07;;;;;;;44.92;23.48;;;7.70;81.80;;;;;;4898456;29;20044;-69
2022/03/29 06:34:32;;;;;;;37.63;22.33;;;7.70;81.90;;;;;;4914845;29;20044;-69
2022/03/29 06:36:59;;;;;;;35.55;22.73;;;7.70;81.90;;;;;;4909699;29;20505;-69
2022/03/29 06:39:25;;;;;;;42.63;23.63;;;7.90;82.30;;;;;;4929172;29;20072;-68
2022/03/29 06:41:50;;;;;;;45.97;24.10;;;7.90;82.10;;;;;;4919268;29;20055;-68
2022/03/29 06:44:17;;;;;;;40.33;21.50;;;7.90;82.00;;;;;;4922468;29;20047;-69
2022/03/29 06:46:43;;;;;;;38.72;22.30;;;7.90;81.80;;;;;;4930172;29;20047;-69
2022/03/29 06:49:09;;;;;;;44.90;23.13;;;7.90;81.70;;;;;;4933733;29;20075;-69
2022/03/29 06:51:35;;;;;;;38.92;23.33;;;8.00;81.80;;;;;;4918736;29;20094;-69
2022/03/29 06:54:02;;;;;;;40.58;24.77;;;7.90;81.80;;;;;;4925151;29;20549;-69
2022/03/29 06:56:28;;;;;;;44.33;23.73;;;7.90;81.80;;;;;;4934248;29;20122;-70
2022/03/29 06:58:54;;;;;;;38.58;22.67;;;8.00;81.70;;;;;;4916812;29;20060;-69
2022/03/29 07:01:21;;;;;;;52.22;24.42;;;7.90;81.80;;;;;;4928607;29;20048;-69
2022/03/29 07:03:47;;;;;;;46.95;23.63;;;7.90;81.90;;;;;;4925868;29;20138;-69
2022/03/29 07:06:13;;;;;;;43.08;24.08;;;7.90;81.90;;;;;;4914858;29;20087;-69
2022/03/29 07:11:16;;;;;;;44.00;24.13;;;8.00;81.90;;;;;;4914697;29;20107;-68
2022/03/29 07:11:24;;;;;;;46.00;24.08;;;8.00;82.00;;;;;;4916279;29;20048;-68
2022/03/29 07:13:50;;;;;;;44.30;22.33;;;8.00;82.00;;;;;;4931387;29;20099;-68
2022/03/29 07:16:16;;;;;;;43.53;24.42;;;8.10;82.00;;;;;;4927529;29;20255;-68
2022/03/29 07:18:42;;;;;;;41.85;22.83;;;8.10;81.90;;;;;;4923806;29;20539;-69
2022/03/29 07:21:10;;;;;;;38.80;22.77;;;8.10;81.80;;;;;;4929639;29;20485;-69
2022/03/29 07:23:36;;;;;;;48.85;24.65;;;8.20;81.80;;;;;;4914711;29;20422;-69
2022/03/29 07:26:02;;;;;;;44.47;22.92;;;8.20;81.80;;;;;;4924390;29;20039;-68
2022/03/29 07:28:28;;;;;;;36.00;22.40;;;8.20;81.70;;;;;;4931174;29;20063;-68
2022/03/29 07:30:53;;;;;;;35.05;22.17;;;8.30;81.60;;;;;;4913056;29;20047;-69
2022/03/29 07:33:19;;;;;;;40.35;24.10;;;8.30;81.60;;;;;;4916931;29;20048;-68
2022/03/29 07:35:47;;;;;;;42.95;23.85;;;8.30;81.50;;;;;;4928778;29;20047;-68
2022/03/29 07:38:13;;;;;;;38.08;22.48;;;8.40;81.50;;;;;;4928616;29;20044;-68
2022/03/29 07:40:40;;;;;;;34.60;21.63;;;8.50;81.30;;;;;;4920767;29;20037;-69
2022/03/29 07:43:09;;;;;;;40.80;22.17;;;8.50;81.20;;;;;;4927682;29;20067;-68
2022/03/29 07:45:34;;;;;;;39.28;22.90;;;8.50;81.00;;;;;;4930816;29;20059;-68
2022/03/29 07:48:03;;;;;;;39.63;23.08;;;8.50;80.90;;;;;;4930188;29;20067;-69
2022/03/29 07:50:30;;;;;;;41.38;21.80;;;8.50;80.80;;;;;;4932099;29;20059;-69
2022/03/29 07:52:59;;;;;;;38.88;21.67;;;8.40;80.70;;;;;;4932483;29;20090;-68
2022/03/29 07:55:25;;;;;;;37.17;21.73;;;8.40;80.70;;;;;;4930343;29;20054;-68
2022/03/29 07:57:51;;;;;;;45.92;22.67;;;8.50;80.70;;;;;;4932767;29;20051;-68
2022/03/29 08:00:32;;;;;;;42.05;23.58;;;8.50;80.60;;;;;;4925288;29;20036;-68
2022/03/29 08:03:06;;;;;;;47.72;23.33;;;8.60;80.60;;;;;;4918503;29;20047;-67
2022/03/29 08:05:41;;;;;;;42.15;23.35;;;8.60;80.60;;;;;;5085964;27;20405;-67
2022/03/29 08:08:07;;;;;;;38.45;21.52;;;8.70;80.60;;;;;;5067784;28;20045;-67
2022/03/29 08:10:33;;;;;;;35.33;22.02;;;8.70;80.50;;;;;;5066913;28;20076;-68
2022/03/29 08:13:02;;;;;;;35.63;21.10;;;8.70;80.30;;;;;;5067717;28;20041;-67
2022/03/29 08:15:28;;;;;;;36.20;20.17;;;8.80;80.20;;;;;;5077331;28;20130;-68
2022/03/29 08:17:55;;;;;;;39.33;22.15;;;8.90;80.20;;;;;;5071552;28;20051;-68
2022/03/29 08:20:21;;;;;;;38.95;20.92;;;9.00;80.00;;;;;;5067456;28;20048;-68
2022/03/29 08:22:47;;;;;;;40.03;20.17;;;9.00;79.70;;;;;;5059383;28;20048;-68
2022/03/29 08:25:18;;;;;;;40.25;20.15;;;9.00;79.60;;;;;;5071560;28;20076;-69
2022/03/29 08:27:45;;;;;;;35.33;20.38;;;9.00;79.40;;;;;;5066705;28;20049;-69
2022/03/29 08:30:12;;;;;;;41.85;22.20;;;9.10;79.40;;;;;;5070774;28;20037;-69
2022/03/29 08:32:38;;;;;;;35.20;19.55;;;9.10;79.40;;;;;;5066442;28;20044;-69
2022/03/29 08:35:06;;;;;;;37.58;19.02;;;9.10;79.10;;;;;;5066168;28;20044;-69
2022/03/29 08:37:35;;;;;;;31.65;18.85;;;9.10;78.90;;;;;;5066648;28;20043;-68
2022/03/29 08:40:02;;;;;;;30.55;17.67;;;9.10;78.70;;;;;;5066710;28;20055;-69
2022/03/29 08:42:29;;;;;;;30.10;18.55;;;9.10;78.40;;;;;;5066188;28;20063;-68
2022/03/29 08:44:54;;;;;;;37.35;18.58;;;9.10;78.30;;;;;;5066211;28;20099;-68
2022/03/29 08:47:20;;;;;;;39.72;19.48;;;9.10;78.20;;;;;;5065645;28;20060;-69
2022/03/29 08:49:49;;;;;;;33.97;19.92;;;9.20;78.30;;;;;;5064423;28;20425;-69
2022/03/29 08:52:17;;;;;;;36.58;20.02;;;9.30;78.40;;;;;;5054266;28;20044;-69
2022/03/29 08:54:43;;;;;;;41.20;18.42;;;9.40;78.10;;;;;;5057961;28;20041;-67
2022/03/29 08:57:12;;;;;;;36.78;18.70;;;9.40;77.70;;;;;;5065092;28;20040;-68
2022/03/29 08:59:40;;;;;;;41.92;19.65;;;9.40;77.70;;;;;;5044761;28;20719;-68
2022/03/29 09:02:18;;;;;;;35.90;19.40;;;9.50;77.70;;;;;;5063746;28;20052;-67
2022/03/29 09:05:04;;;;;;;36.15;17.83;;;9.50;77.50;;;;;;5066018;28;20061;-69
2022/03/29 09:07:46;;;;;;;47.92;20.65;;;9.50;77.50;;;;;;5064801;28;20552;-68
2022/03/29 09:10:12;;;;;;;34.08;18.92;;;9.60;77.40;;;;;;5060828;28;20513;-67
2022/03/29 09:12:38;;;;;;;37.22;18.63;;;9.60;77.30;;;;;;5036965;28;20055;-67
2022/03/29 09:15:04;;;;;;;39.25;19.52;;;9.60;77.50;;;;;;5046172;28;20034;-67
2022/03/29 09:17:47;;;;;;;32.70;19.45;;;9.60;77.10;;;;;;5050037;28;20098;-67
2022/03/29 09:20:24;;;;;;;33.80;19.45;;;9.60;77.00;;;;;;5039305;28;20049;-67
2022/03/29 09:22:56;;;;;;;38.47;20.17;;;9.60;77.10;;;;;;5034446;28;20056;-67
2022/03/29 09:25:50;;;;;;;33.05;20.45;;;9.60;77.20;;;;;;5050604;28;20044;-67
2022/03/29 09:28:34;;;;;;;38.88;22.75;;;9.70;76.90;;;;;;5049179;28;20074;-67
2022/03/29 09:31:20;;;;;;;34.43;20.63;;;9.70;77.00;;;;;;5046419;28;20588;-67
2022/03/29 09:33:47;;;;;;;36.75;20.42;;;9.70;77.00;;;;;;5024739;28;20296;-67
2022/03/29 09:36:20;;;;;;;33.92;20.55;;;9.70;76.90;;;;;;5032494;28;20056;-71
2022/03/29 09:38:47;;;;;;;36.63;19.38;;;9.80;76.60;;;;;;5051488;28;20095;-66
2022/03/29 09:41:30;;;;;;;28.52;18.80;;;9.80;76.50;;;;;;5048139;28;20175;-66
2022/03/29 09:44:08;;;;;;;36.78;19.77;;;9.80;76.40;;;;;;5063717;28;20084;-67
2022/03/29 09:46:53;;;;;;;27.45;18.17;;;9.90;76.50;;;;;;5051612;28;20041;-67
2022/03/29 09:49:20;;;;;;;38.55;18.52;;;9.90;76.30;;;;;;5043706;28;20048;-66
2022/03/29 09:51:46;;;;;;;34.40;20.85;;;10.00;76.50;;;;;;5046074;28;20140;-67
2022/03/29 09:54:12;;;;;;;38.75;20.67;;;10.00;76.40;;;;;;5040937;28;20065;-66
2022/03/29 09:56:38;;;;;;;37.22;19.80;;;10.10;76.40;;;;;;5043340;28;20389;-67
2022/03/29 09:59:16;;;;;;;45.55;20.88;;;10.10;76.20;;;;;;5047214;28;20041;-67
2022/03/29 10:01:55;;;;;;;37.28;19.45;;;10.30;76.10;;;;;;5035040;28;20506;-67
2022/03/29 10:04:23;;;;;;;40.15;21.00;;;10.40;76.10;;;;;;5046801;28;20048;-67
2022/03/29 10:06:52;;;;;;;37.40;18.88;;;10.40;75.60;;;;;;5054125;28;20500;-67
2022/03/29 10:09:30;;;;;;;35.70;18.70;;;10.30;75.30;;;;;;5051357;28;20056;-67
2022/03/29 10:12:04;;;;;;;37.20;18.92;;;10.40;75.00;;;;;;5048202;28;20053;-69
2022/03/29 10:14:36;;;;;;;33.53;18.50;;;10.40;75.10;;;;;;5055794;28;20768;-67
2022/03/29 10:17:03;;;;;;;29.90;16.55;;;10.40;75.00;;;;;;5051187;28;20107;-66
2022/03/29 10:19:29;;;;;;;29.95;16.50;;;10.40;75.10;;;;;;5053718;28;20481;-66
2022/03/29 10:21:57;;;;;;;31.77;18.25;;;10.60;75.00;;;;;;5051012;28;20044;-65
2022/03/29 10:24:23;;;;;;;26.98;16.00;;;10.70;75.00;;;;;;5050078;28;20394;-66
2022/03/29 10:26:51;;;;;;;36.67;15.73;;;10.80;74.50;;;;;;5049264;28;20452;-66
2022/03/29 10:29:17;;;;;;;34.15;16.13;;;10.90;73.90;;;;;;5049694;28;20045;-66
2022/03/29 10:32:05;;;;;;;36.45;16.33;;;10.90;73.60;;;;;;5049565;28;20455;-66
2022/03/29 10:34:42;;;;;;;29.40;15.65;;;11.00;72.90;;;;;;5049526;28;20133;-65
2022/03/29 10:37:10;;;;;;;36.33;15.95;;;10.90;73.00;;;;;;5050225;28;20048;-66
2022/03/29 10:40:04;;;;;;;17.13;9.18;;;10.90;72.70;;;;;;5046173;28;20415;-69
2022/03/29 10:42:32;;;;;;;28.83;16.10;;;11.10;73.30;;;;;;5041689;28;20387;-67
2022/03/29 10:45:21;;;;;;;28.77;16.27;;;11.60;73.60;;;;;;5052477;28;20383;-67
2022/03/29 10:48:09;;;;;;;27.77;15.40;;;11.70;72.20;;;;;;5049633;28;20041;-68
2022/03/29 10:50:53;;;;;;;24.25;14.77;;;11.70;70.90;;;;;;5048234;28;20045;-67
2022/03/29 10:53:30;;;;;;;29.55;15.93;;;11.60;70.30;;;;;;5049521;28;20167;-68
2022/03/29 10:56:19;;;;;;;34.42;15.00;;;11.60;70.10;;;;;;5045049;28;20037;-68
2022/03/29 10:59:02;;;;;;;27.35;15.30;;;11.60;69.90;;;;;;5051272;28;20100;-68
2022/03/29 11:01:34;;;;;;;31.85;17.20;;;11.60;69.10;;;;;;5049635;28;20102;-68
2022/03/29 11:04:17;;;;;;;33.35;16.60;;;11.60;69.40;;;;;;5048770;28;20551;-67
2022/03/29 11:07:05;;;;;;;28.92;14.35;;;11.60;69.20;;;;;;5047863;28;20053;-68
2022/03/29 11:09:31;;;;;;;32.88;14.50;;;11.60;69.40;;;;;;5048768;28;20607;-68
2022/03/29 11:11:57;;;;;;;30.40;14.80;;;11.60;69.50;;;;;;5049157;28;20048;-67
2022/03/29 11:14:29;;;;;;;37.25;15.43;;;11.60;69.20;;;;;;5045570;28;20044;-68
2022/03/29 11:16:56;;;;;;;;;;;11.70;69.10;;;;;;5043427;28;20084;-68
2022/03/29 11:19:43;;;;;;;34.10;13.68;;;11.70;68.80;;;;;;5047692;28;19921;-68
2022/03/29 11:22:36;;;;;;;32.67;14.25;;;11.80;69.00;;;;;;5047003;28;20056;-68
2022/03/29 11:25:05;;;;;;;29.30;13.05;;;11.80;68.30;;;;;;5044719;28;20092;-68
2022/03/29 11:27:35;;;;;;;28.75;13.25;;;11.80;69.10;;;;;;5061865;28;20056;-68
2022/03/29 11:30:05;;;;;;;25.27;11.40;;;11.90;68.50;;;;;;5064701;28;20386;-68
2022/03/29 11:32:32;;;;;;;30.17;11.65;;;11.90;68.30;;;;;;5049006;28;20075;-69
2022/03/29 11:34:58;;;;;;;36.38;12.20;;;11.90;67.10;;;;;;5044824;28;20124;-69
2022/03/29 11:37:43;;;;;;;29.30;11.25;;;11.80;67.00;;;;;;5044261;28;20127;-68
2022/03/29 11:40:15;;;;;;;33.45;11.80;;;12.00;66.70;;;;;;5048508;28;20578;-68
2022/03/29 11:42:44;;;;;;;;;;;11.90;66.90;;;;;;5048906;28;20409;-69
2022/03/29 11:45:10;;;;;;;25.88;10.55;;;11.80;65.90;;;;;;5045593;28;19925;-68
2022/03/29 11:47:37;;;;;;;30.52;13.63;;;11.70;66.40;;;;;;5057301;28;20135;-68
2022/03/29 11:50:03;;;;;;;26.13;11.27;;;11.80;66.40;;;;;;5045729;28;20082;-68
2022/03/29 11:52:36;;;;;;;29.00;10.55;;;11.70;66.30;;;;;;5042078;28;20037;-66
2022/03/29 11:55:15;;;;;;;33.88;11.35;;;11.70;65.90;;;;;;5047762;28;20053;-68
2022/03/29 11:57:41;;;;;;;28.77;9.90;;;11.60;65.90;;;;;;5048859;28;20045;-68
2022/03/29 12:00:23;;;;;;;28.35;10.35;;;11.60;66.40;;;;;;5049495;28;20045;-68
2022/03/29 12:02:49;;;;;;;25.85;10.27;;;11.50;66.20;;;;;;5048392;28;20039;-68
2022/03/29 12:05:25;;;;;;;26.38;11.02;;;11.50;66.30;;;;;;5048401;28;20060;-66
2022/03/29 12:08:02;;;;;;;29.50;10.82;;;11.40;66.10;;;;;;5047904;28;20044;-68
2022/03/29 12:10:30;;;;;;;28.00;10.85;;;11.30;66.60;;;;;;5049125;28;20053;-68
2022/03/29 12:12:55;;;;;;;27.63;10.80;;;11.30;66.80;;;;;;5048032;28;20049;-68
2022/03/29 12:15:22;;;;;;;31.30;11.40;;;11.30;66.70;;;;;;5051728;28;20127;-68
2022/03/29 12:20:40;;;;;;;;;;;11.30;66.30;;;;;;5059284;28;20052;-68
2022/03/29 12:23:24;;;;;;;23.42;10.77;;;11.30;66.60;;;;;;5046267;28;19927;-69
2022/03/29 12:25:50;;;;;;;33.47;9.10;;;11.40;66.30;;;;;;5048248;28;20037;-69
2022/03/29 12:28:19;;;;;;;27.27;9.75;;;11.30;66.80;;;;;;5050299;28;20076;-68
2022/03/29 12:30:45;;;;;;;36.90;8.95;;;11.40;66.90;;;;;;5047861;28;20070;-69
2022/03/29 12:33:11;;;;;;;31.05;9.63;;;11.60;66.10;;;;;;5047319;28;20115;-70
2022/03/29 12:35:37;;;;;;;23.90;9.73;;;11.40;66.60;;;;;;5048481;28;20128;-70
2022/03/29 12:38:09;;;;;;;28.70;10.00;;;11.40;66.40;;;;;;5046737;28;20127;-70
2022/03/29 12:40:37;;;;;;;24.73;8.82;;;11.30;66.70;;;;;;5053335;28;20051;-70
2022/03/29 12:43:08;;;;;;;34.03;9.23;;;11.30;67.10;;;;;;5040898;28;20083;-69
2022/03/29 12:45:35;;;;;;;34.92;11.20;;;11.20;67.20;;;;;;5047177;28;20041;-69
2022/03/29 12:48:04;;;;;;;29.33;9.63;;;11.20;67.40;;;;;;5048103;28;20069;-70
2022/03/29 12:50:31;;;;;;;25.45;9.27;;;11.20;67.40;;;;;;5033440;28;20045;-69